createdAt,value
2022-09-22T00:00:44.312Z,4.72
2022-09-22T00:06:09.454Z,4.30
2022-09-22T00:11:18.953Z,3.45
2022-09-22T00:16:28.576Z,4.28
2022-09-22T00:21:34.673Z,4.50
2022-09-22T00:26:42.239Z,4.28
2022-09-22T00:31:48.445Z,7.88
2022-09-22T00:36:54.688Z,4.80
2022-09-22T00:42:01.973Z,5.05
2022-09-22T00:47:26.311Z,4.47
2022-09-22T00:53:28.005Z,5.18
2022-09-22T00:58:42.383Z,4.15
2022-09-22T01:03:49.330Z,6.50
2022-09-22T01:08:57.186Z,5.88
2022-09-22T01:14:18.379Z,5.40
2022-09-22T01:20:23.977Z,5.13
2022-09-22T01:26:02.166Z,3.85
2022-09-22T01:31:17.743Z,3.77
2022-09-22T01:36:33.029Z,4.10
2022-09-22T01:41:52.891Z,4.60
2022-09-22T01:47:06.818Z,3.78
2022-09-22T01:52:21.129Z,3.83
2022-09-22T01:57:36.603Z,4.40
2022-09-22T02:02:51.876Z,3.10
2022-09-22T02:08:01.399Z,4.28
2022-09-22T02:13:07.589Z,4.40
2022-09-22T02:18:20.438Z,3.08
2022-09-22T02:23:26.612Z,10.48
2022-09-22T02:28:38.117Z,4.68
2022-09-22T02:33:45.675Z,2.67
2022-09-22T02:39:00.310Z,3.15
2022-09-22T02:44:14.194Z,6.03
2022-09-22T02:49:23.159Z,5.43
2022-09-22T02:54:29.182Z,5.15
2022-09-22T02:59:35.573Z,5.00
2022-09-22T03:04:42.939Z,4.00
2022-09-22T03:09:49.153Z,4.88
2022-09-22T03:14:55.466Z,4.40
2022-09-22T03:20:03.310Z,4.25
2022-09-22T03:25:11.262Z,7.57
2022-09-22T03:30:17.661Z,4.13
2022-09-22T03:35:25.189Z,5.32
2022-09-22T03:40:31.230Z,5.03
2022-09-22T03:45:37.292Z,5.03
2022-09-22T03:50:44.916Z,4.85
2022-09-22T03:55:51.071Z,4.55
2022-09-22T04:00:58.594Z,5.10
2022-09-22T04:06:07.188Z,5.07
2022-09-22T04:11:13.265Z,6.30
2022-09-22T04:16:19.619Z,5.03
2022-09-22T04:21:27.022Z,5.40
2022-09-22T04:26:32.986Z,5.70
2022-09-22T04:31:39.295Z,6.25
2022-09-22T04:36:46.647Z,6.72
2022-09-22T04:41:52.693Z,8.73
2022-09-22T04:46:58.648Z,6.20
2022-09-22T04:52:08.048Z,5.25
2022-09-22T04:57:18.337Z,6.07
2022-09-22T05:02:26.508Z,7.05
2022-09-22T05:07:34.133Z,6.22
2022-09-22T05:12:42.119Z,5.18
2022-09-22T05:17:49.871Z,7.77
2022-09-22T05:22:57.267Z,6.82
2022-09-22T05:28:03.585Z,6.75
2022-09-22T05:33:09.577Z,8.02
2022-09-22T05:38:16.883Z,6.32
2022-09-22T05:43:22.827Z,7.05
2022-09-22T05:48:31.222Z,6.15
2022-09-22T05:53:39.186Z,7.80
2022-09-22T05:58:45.399Z,9.15
2022-09-22T06:03:51.798Z,5.13
2022-09-22T06:08:59.310Z,4.47
2022-09-22T06:14:05.154Z,8.50
2022-09-22T06:19:11.157Z,4.80
2022-09-22T06:24:18.687Z,5.47
2022-09-22T06:29:24.828Z,5.40
2022-09-22T06:34:30.938Z,7.35
2022-09-22T06:39:38.766Z,7.75
2022-09-22T06:44:44.830Z,7.28
2022-09-22T06:49:51.100Z,7.15
2022-09-22T06:55:01.452Z,5.90
2022-09-22T07:00:10.004Z,8.75
2022-09-22T07:05:18.948Z,11.15
2022-09-22T07:10:26.714Z,7.35
2022-09-22T07:15:33.308Z,8.32
2022-09-22T07:20:39.325Z,7.75
2022-09-22T07:25:56.749Z,9.57
2022-09-22T07:31:06.381Z,6.40
2022-09-22T07:36:16.086Z,8.23
2022-09-22T07:41:25.300Z,6.28
2022-09-22T07:46:31.365Z,11.18
2022-09-22T07:51:38.947Z,9.88
2022-09-22T07:56:47.455Z,9.57
2022-09-22T08:01:54.509Z,7.55
2022-09-22T08:07:00.612Z,7.13
2022-09-22T08:12:10.855Z,8.30
2022-09-22T08:17:17.480Z,9.77
2022-09-22T08:22:24.002Z,7.47
2022-09-22T08:27:31.569Z,6.95
2022-09-22T08:32:37.931Z,8.50
2022-09-22T08:37:44.796Z,8.82
2022-09-22T08:42:55.883Z,6.05
2022-09-22T08:48:26.639Z,7.65
2022-09-22T08:53:36.906Z,8.25
2022-09-22T08:58:55.548Z,8.10
2022-09-22T09:09:44.318Z,5.88
2022-09-22T09:15:21.143Z,6.82
2022-09-22T09:20:39.176Z,4.50
2022-09-22T09:25:46.705Z,3.67
2022-09-22T09:30:57.929Z,4.22
2022-09-22T09:36:04.334Z,4.63
2022-09-22T09:41:18.264Z,4.70
2022-09-22T09:46:41.138Z,3.55
2022-09-22T09:51:51.448Z,3.95
2022-09-22T09:57:13.901Z,1.98
2022-09-22T10:02:27.771Z,2.67
2022-09-22T10:07:45.189Z,2.30
2022-09-22T10:12:51.780Z,2.22
2022-09-22T10:17:59.496Z,1.98
2022-09-22T10:23:22.809Z,2.20
2022-09-22T10:28:28.749Z,1.65
2022-09-22T10:33:40.492Z,1.90
2022-09-22T10:38:51.654Z,2.10
2022-09-22T10:44:06.412Z,3.28
2022-09-22T10:49:31.991Z,1.37
2022-09-22T10:55:10.756Z,1.13
2022-09-22T11:00:19.455Z,1.95
2022-09-22T11:06:01.703Z,1.35
2022-09-22T11:11:33.636Z,1.67
2022-09-22T11:17:16.267Z,1.40
2022-09-22T11:22:44.064Z,6.63
2022-09-22T11:28:09.378Z,0.90
2022-09-22T11:34:09.512Z,1.63
2022-09-22T11:39:44.074Z,1.08
2022-09-22T11:45:09.192Z,1.55
2022-09-22T11:50:36.492Z,1.67
2022-09-22T11:55:53.124Z,0.93
2022-09-22T12:01:10.917Z,1.17
2022-09-22T12:06:24.928Z,1.10
2022-09-22T12:11:36.630Z,0.90
2022-09-22T12:16:49.299Z,1.63
2022-09-22T12:22:07.733Z,1.20
2022-09-22T12:27:23.421Z,1.57
2022-09-22T12:32:38.284Z,0.98
2022-09-22T12:37:44.797Z,1.48
2022-09-22T12:42:54.610Z,1.90
2022-09-22T12:48:06.002Z,5.20
2022-09-22T12:53:28.234Z,1.40
2022-09-22T12:58:48.131Z,1.10
2022-09-22T13:04:04.666Z,1.52
2022-09-22T13:09:21.939Z,1.10
2022-09-22T13:15:21.393Z,1.80
2022-09-22T13:20:33.927Z,1.80
2022-09-22T13:25:42.799Z,2.53
2022-09-22T13:31:04.949Z,1.75
2022-09-22T13:36:17.200Z,3.30
2022-09-22T13:41:26.601Z,1.05
2022-09-22T13:46:41.326Z,0.95
2022-09-22T13:51:55.928Z,0.88
2022-09-22T13:57:09.399Z,1.67
2022-09-22T14:02:28.201Z,1.63
2022-09-22T14:07:55.172Z,1.02
2022-09-22T14:13:05.270Z,3.80
2022-09-22T14:18:21.121Z,1.05
2022-09-22T14:23:32.215Z,1.92
2022-09-22T14:28:42.985Z,2.15
2022-09-22T14:33:50.714Z,1.55
2022-09-22T14:39:10.176Z,1.38
2022-09-22T14:44:39.780Z,1.42
2022-09-22T14:49:49.265Z,0.95
2022-09-22T14:54:58.140Z,2.60
2022-09-22T15:00:22.396Z,1.35
2022-09-22T15:05:34.517Z,0.88
2022-09-22T15:10:41.156Z,1.77
2022-09-22T15:15:49.199Z,2.85
2022-09-22T15:21:00.073Z,1.70
2022-09-22T15:26:07.062Z,2.17
2022-09-22T15:31:22.631Z,2.63
2022-09-22T15:36:32.345Z,3.28
2022-09-22T15:41:38.898Z,2.55
2022-09-22T15:46:50.624Z,1.58
2022-09-22T15:51:58.552Z,1.65
2022-09-22T15:57:08.138Z,3.85
2022-09-22T16:02:17.612Z,2.65
2022-09-22T16:07:25.270Z,2.47
2022-09-22T16:12:32.005Z,2.00
2022-09-22T16:17:38.619Z,3.03
2022-09-22T16:22:46.892Z,5.45
2022-09-22T16:27:52.967Z,5.50
2022-09-22T16:32:59.776Z,4.97
2022-09-22T16:38:07.221Z,6.30
2022-09-22T16:43:13.519Z,5.07
2022-09-22T16:48:19.583Z,4.18
2022-09-22T16:53:27.219Z,5.75
2022-09-22T16:58:34.015Z,11.75
2022-09-22T17:03:41.512Z,15.90
2022-09-22T17:08:48.951Z,10.98
2022-09-22T17:13:55.973Z,9.60
2022-09-22T17:19:05.057Z,7.05
2022-09-22T17:24:13.374Z,4.32
2022-09-22T17:29:25.327Z,4.57
2022-09-22T17:34:34.409Z,4.53
2022-09-22T17:39:43.842Z,5.05
2022-09-22T17:44:49.931Z,5.53
2022-09-22T17:50:13.091Z,5.00
2022-09-22T17:55:25.688Z,4.65
2022-09-22T18:00:34.068Z,5.03
2022-09-22T18:05:41.451Z,4.63
2022-09-22T18:10:49.423Z,6.72
2022-09-22T18:15:55.743Z,10.73
2022-09-22T18:21:06.462Z,9.70
2022-09-22T18:26:14.535Z,12.63
2022-09-22T18:31:20.553Z,6.50
2022-09-22T18:36:27.196Z,6.47
2022-09-22T18:41:35.822Z,7.88
2022-09-22T18:46:48.920Z,5.63
2022-09-22T18:51:59.095Z,5.75
2022-09-22T18:57:12.677Z,8.43
2022-09-22T19:02:23.213Z,5.22
2022-09-22T19:07:42.990Z,6.13
2022-09-22T19:17:58.771Z,5.57
2022-09-22T19:23:07.494Z,6.60
2022-09-22T19:28:16.385Z,7.38
2022-09-22T19:33:25.005Z,6.97
2022-09-22T19:38:32.314Z,6.32
2022-09-22T19:43:39.992Z,9.43
2022-09-22T19:48:46.548Z,6.20
2022-09-22T19:53:57.272Z,8.23
2022-09-22T19:59:07.492Z,9.05
2022-09-22T20:04:18.125Z,6.32
2022-09-22T20:09:24.069Z,7.35
2022-09-22T20:14:32.309Z,5.60
2022-09-22T20:19:39.957Z,5.43
2022-09-22T20:24:54.246Z,6.47
2022-09-22T20:30:02.958Z,5.43
2022-09-22T20:35:12.162Z,4.55
2022-09-22T20:40:23.364Z,4.55
2022-09-22T20:45:30.814Z,6.20
2022-09-22T20:50:36.774Z,5.70
2022-09-22T20:55:42.965Z,5.22
2022-09-22T21:00:51.903Z,7.15
2022-09-22T21:06:01.813Z,6.07
2022-09-22T21:11:14.296Z,6.30
2022-09-22T21:16:22.063Z,5.78
2022-09-22T21:21:28.545Z,8.18
2022-09-22T21:26:35.333Z,4.20
2022-09-22T21:31:42.898Z,8.65
2022-09-22T21:36:49.261Z,6.53
2022-09-22T21:41:55.294Z,10.07
2022-09-22T21:47:02.769Z,4.25
2022-09-22T21:52:08.758Z,5.65
2022-09-22T21:57:14.741Z,4.57
2022-09-22T22:02:22.201Z,3.47
2022-09-22T22:07:28.250Z,6.57
2022-09-22T22:12:34.905Z,5.93
2022-09-22T22:17:42.314Z,4.28
2022-09-22T22:22:48.226Z,4.82
2022-09-22T22:27:57.094Z,3.80
2022-09-22T22:33:04.286Z,3.78
2022-09-22T22:38:11.043Z,5.70
2022-09-22T22:43:18.231Z,4.57
2022-09-22T22:48:26.446Z,3.35
2022-09-22T22:53:32.222Z,4.73
2022-09-22T22:58:39.415Z,4.15
2022-09-22T23:03:49.542Z,5.22
2022-09-22T23:08:56.409Z,6.07
2022-09-22T23:14:03.494Z,6.00
2022-09-22T23:19:14.164Z,6.10
2022-09-22T23:24:20.187Z,5.90
2022-09-22T23:29:26.120Z,6.90
2022-09-22T23:34:33.714Z,5.07
2022-09-22T23:39:39.405Z,5.85
2022-09-22T23:44:45.136Z,6.10
2022-09-22T23:49:52.285Z,5.47
2022-09-22T23:54:57.997Z,4.88
